createdAt,value
2022-10-12T00:01:12.791Z,101980.06
2022-10-12T00:03:39.980Z,101977.56
2022-10-12T00:06:08.951Z,101970.47
2022-10-12T00:08:37.330Z,101960.19
2022-10-12T00:11:05.646Z,101962.00
2022-10-12T00:13:32.585Z,101963.81
2022-10-12T00:16:04.552Z,101957.81
2022-10-12T00:18:32.202Z,101960.59
2022-10-12T00:21:08.497Z,101966.00
2022-10-12T00:23:36.960Z,101961.56
2022-10-12T00:26:16.594Z,101958.09
2022-10-12T00:28:43.607Z,101956.41
2022-10-12T00:31:14.348Z,101962.66
2022-10-12T00:33:41.372Z,101970.72
2022-10-12T00:36:19.773Z,101967.50
2022-10-12T00:38:48.801Z,101956.28
2022-10-12T00:41:18.007Z,101959.88
2022-10-12T00:43:46.381Z,101955.00
2022-10-12T00:46:15.950Z,101950.69
2022-10-12T00:48:44.818Z,101957.09
2022-10-12T00:51:12.155Z,101949.41
2022-10-12T00:53:45.152Z,101946.91
2022-10-12T00:56:14.168Z,101950.53
2022-10-12T00:58:41.323Z,101952.59
2022-10-12T01:01:08.233Z,101951.06
2022-10-12T01:03:36.518Z,101958.03
2022-10-12T01:06:04.081Z,101945.66
2022-10-12T01:08:30.859Z,101937.75
2022-10-12T01:10:57.796Z,101944.00
2022-10-12T01:13:24.886Z,101933.69
2022-10-12T01:16:03.513Z,101943.28
2022-10-12T01:19:01.270Z,101938.84
2022-10-12T01:21:28.465Z,101937.03
2022-10-12T01:24:31.333Z,101929.25
2022-10-12T01:27:24.458Z,101930.50
2022-10-12T01:29:51.169Z,101933.53
2022-10-12T01:32:39.078Z,101934.63
2022-10-12T01:35:14.408Z,101939.91
2022-10-12T01:38:19.270Z,101918.97
2022-10-12T01:41:16.647Z,101932.53
2022-10-12T01:43:44.970Z,101931.09
2022-10-12T01:46:21.297Z,101932.91
2022-10-12T01:48:51.956Z,101923.31
2022-10-12T01:51:35.087Z,101912.78
2022-10-12T01:54:17.530Z,101916.09
2022-10-12T01:56:58.809Z,101913.47
2022-10-12T02:00:00.144Z,101919.56
2022-10-12T02:03:05.000Z,101923.31
2022-10-12T02:05:44.773Z,101914.00
2022-10-12T02:08:46.978Z,101910.41
2022-10-12T02:11:17.046Z,101901.09
2022-10-12T02:14:16.203Z,101906.38
2022-10-12T02:16:54.240Z,101909.97
2022-10-12T02:19:41.185Z,101906.50
2022-10-12T02:22:13.329Z,101906.50
2022-10-12T02:24:43.394Z,101903.00
2022-10-12T02:27:16.319Z,101897.06
2022-10-12T02:29:46.263Z,101898.84
2022-10-12T02:32:51.249Z,101888.19
2022-10-12T02:35:28.525Z,101889.03
2022-10-12T02:38:19.230Z,101885.69
2022-10-12T02:40:58.972Z,101879.56
2022-10-12T02:43:43.057Z,101874.28
2022-10-12T02:46:12.073Z,101879.56
2022-10-12T02:48:42.196Z,101877.06
2022-10-12T02:51:15.618Z,101870.69
2022-10-12T02:53:45.559Z,101875.25
2022-10-12T02:56:18.493Z,101874.41
2022-10-12T02:58:49.788Z,101877.22
2022-10-12T03:01:19.918Z,101872.91
2022-10-12T03:03:47.307Z,101868.47
2022-10-12T03:06:14.602Z,101866.78
2022-10-12T03:08:42.984Z,101876.50
2022-10-12T03:11:14.883Z,101868.72
2022-10-12T03:13:45.836Z,101871.22
2022-10-12T03:16:15.069Z,101866.06
2022-10-12T03:18:43.424Z,101862.34
2022-10-12T03:21:11.743Z,101857.78
2022-10-12T03:23:40.154Z,101852.25
2022-10-12T03:26:08.344Z,101846.03
2022-10-12T03:28:37.278Z,101846.69
2022-10-12T03:31:04.974Z,101846.56
2022-10-12T03:33:36.240Z,101847.41
2022-10-12T03:36:04.248Z,101841.31
2022-10-12T03:38:31.768Z,101847.13
2022-10-12T03:41:02.870Z,101838.97
2022-10-12T03:43:34.703Z,101838.00
2022-10-12T03:46:04.550Z,101830.91
2022-10-12T03:48:32.779Z,101827.19
2022-10-12T03:50:59.767Z,101822.75
2022-10-12T03:53:27.192Z,101827.09
2022-10-12T03:55:54.084Z,101823.19
2022-10-12T03:58:21.027Z,101817.81
2022-10-12T04:00:52.564Z,101819.72
2022-10-12T04:03:19.491Z,101820.44
2022-10-12T04:05:55.394Z,101818.59
2022-10-12T04:08:23.362Z,101815.00
2022-10-12T04:10:52.855Z,101813.91
2022-10-12T04:13:20.329Z,101810.31
2022-10-12T04:15:47.158Z,101810.31
2022-10-12T04:18:13.903Z,101808.47
2022-10-12T04:20:40.614Z,101805.84
2022-10-12T04:23:07.468Z,101794.34
2022-10-12T04:25:34.187Z,101783.66
2022-10-12T04:28:00.898Z,101781.72
2022-10-12T04:30:27.778Z,101771.84
2022-10-12T04:32:54.485Z,101781.31
2022-10-12T04:35:21.232Z,101776.88
2022-10-12T04:37:48.093Z,101772.16
2022-10-12T04:40:14.963Z,101780.75
2022-10-12T04:42:43.677Z,101763.09
2022-10-12T04:45:10.615Z,101782.41
2022-10-12T04:47:37.660Z,101776.03
2022-10-12T04:50:05.696Z,101777.72
2022-10-12T04:52:32.491Z,101768.97
2022-10-12T04:54:59.426Z,101777.56
2022-10-12T04:57:26.130Z,101784.50
2022-10-12T04:59:52.816Z,101780.19
2022-10-12T05:02:19.620Z,101774.78
2022-10-12T05:04:46.349Z,101777.56
2022-10-12T05:07:13.099Z,101777.56
2022-10-12T05:09:39.848Z,101775.88
2022-10-12T05:12:06.699Z,101778.69
2022-10-12T05:14:35.986Z,101778.69
2022-10-12T05:17:03.340Z,101786.59
2022-10-12T05:19:30.106Z,101788.25
2022-10-12T05:21:56.904Z,101794.50
2022-10-12T05:24:23.632Z,101787.56
2022-10-12T05:26:50.344Z,101788.41
2022-10-12T05:29:17.037Z,101775.19
2022-10-12T05:31:43.738Z,101783.78
2022-10-12T05:34:10.594Z,101772.28
2022-10-12T05:36:37.472Z,101761.59
2022-10-12T05:39:11.794Z,101759.78
2022-10-12T05:41:38.913Z,101765.91
2022-10-12T05:44:06.062Z,101761.31
2022-10-12T05:46:32.867Z,101755.06
2022-10-12T05:48:59.798Z,101749.53
2022-10-12T05:51:28.944Z,101753.66
2022-10-12T05:53:56.006Z,101752.72
2022-10-12T05:56:22.861Z,101753.38
2022-10-12T05:58:49.537Z,101761.03
2022-10-12T06:01:16.700Z,101755.75
2022-10-12T06:03:43.446Z,101754.91
2022-10-12T06:06:10.282Z,101755.75
2022-10-12T06:08:37.100Z,101759.91
2022-10-12T06:11:04.043Z,101753.66
2022-10-12T06:13:31.217Z,101746.59
2022-10-12T06:15:58.287Z,101750.88
2022-10-12T06:18:25.086Z,101756.84
2022-10-12T06:21:21.103Z,101745.31
2022-10-12T06:23:41.197Z,101751.56
2022-10-12T06:26:08.012Z,101750.59
2022-10-12T06:28:34.849Z,101740.88
2022-10-12T06:31:01.902Z,101752.13
2022-10-12T06:33:29.182Z,101746.84
2022-10-12T06:35:56.462Z,101752.97
2022-10-12T06:38:24.060Z,101747.69
2022-10-12T06:40:51.113Z,101752.81
2022-10-12T06:43:17.859Z,101746.69
2022-10-12T06:45:44.552Z,101745.59
2022-10-12T06:48:16.187Z,101752.53
2022-10-12T06:50:46.436Z,101748.63
2022-10-12T06:53:13.179Z,101741.44
2022-10-12T06:55:40.711Z,101740.44
2022-10-12T06:58:07.635Z,101743.78
2022-10-12T07:00:34.672Z,101744.31
2022-10-12T07:03:01.465Z,101743.22
2022-10-12T07:05:28.495Z,101736.97
2022-10-12T07:07:55.464Z,101741.22
2022-10-12T07:10:23.482Z,101735.69
2022-10-12T07:12:50.344Z,101736.34
2022-10-12T07:15:17.279Z,101740.66
2022-10-12T07:17:43.973Z,101734.28
2022-10-12T07:20:10.770Z,101732.19
2022-10-12T07:22:37.646Z,101736.31
2022-10-12T07:25:04.766Z,101735.09
2022-10-12T07:27:31.637Z,101735.75
2022-10-12T07:29:58.435Z,101736.47
2022-10-12T07:32:25.277Z,101742.56
2022-10-12T07:34:52.015Z,101736.16
2022-10-12T07:37:18.799Z,101735.03
2022-10-12T07:39:45.884Z,101735.72
2022-10-12T07:42:18.203Z,101742.41
2022-10-12T07:44:46.190Z,101736.69
2022-10-12T07:47:12.893Z,101731.91
2022-10-12T07:49:39.649Z,101733.47
2022-10-12T07:52:06.416Z,101735.66
2022-10-12T07:54:33.291Z,101734.53
2022-10-12T07:57:00.017Z,101738.41
2022-10-12T07:59:26.964Z,101729.22
2022-10-12T08:01:53.764Z,101732.41
2022-10-12T08:04:20.582Z,101726.81
2022-10-12T08:06:47.460Z,101727.22
2022-10-12T08:09:14.348Z,101720.78
2022-10-12T08:11:42.092Z,101721.47
2022-10-12T08:14:16.644Z,101726.44
2022-10-12T08:16:44.622Z,101720.88
2022-10-12T08:19:12.588Z,101725.88
2022-10-12T08:21:41.311Z,101717.66
2022-10-12T08:24:08.733Z,101714.69
2022-10-12T08:26:36.091Z,101717.03
2022-10-12T08:29:13.558Z,101709.66
2022-10-12T08:31:40.738Z,101710.16
2022-10-12T08:34:07.529Z,101705.41
2022-10-12T08:36:34.477Z,101710.25
2022-10-12T08:39:13.265Z,101704.34
2022-10-12T08:41:57.035Z,101715.16
2022-10-12T08:45:06.843Z,101709.94
2022-10-12T08:47:41.194Z,101692.47
2022-10-12T08:50:17.113Z,101694.19
2022-10-12T08:53:20.843Z,101700.53
2022-10-12T08:55:47.653Z,101703.25
2022-10-12T08:58:14.663Z,101699.97
2022-10-12T09:00:42.854Z,101699.50
2022-10-12T09:03:24.207Z,101696.13
2022-10-12T09:06:04.608Z,101701.47
2022-10-12T09:08:52.519Z,101694.25
2022-10-12T09:11:46.845Z,101691.97
2022-10-12T09:14:21.279Z,101698.69
2022-10-12T09:16:50.375Z,101689.78
2022-10-12T09:19:25.387Z,101684.19
2022-10-12T09:21:52.182Z,101691.50
2022-10-12T09:24:22.580Z,101693.34
2022-10-12T09:26:52.791Z,101693.53
2022-10-12T09:29:24.510Z,101692.06
2022-10-12T09:32:15.627Z,101687.25
2022-10-12T09:34:43.647Z,101684.28
2022-10-12T09:37:21.044Z,101691.22
2022-10-12T09:39:48.485Z,101706.84
2022-10-12T09:42:15.741Z,101698.53
2022-10-12T09:44:50.604Z,101699.88
2022-10-12T09:47:33.484Z,101697.91
2022-10-12T09:50:08.429Z,101705.50
2022-10-12T09:52:45.031Z,101699.94
2022-10-12T09:55:11.950Z,101703.91
2022-10-12T09:57:45.715Z,101702.59
2022-10-12T10:00:44.491Z,101711.41
2022-10-12T10:03:27.873Z,101703.59
2022-10-12T10:06:05.315Z,101700.78
2022-10-12T10:08:41.373Z,101711.75
2022-10-12T10:11:20.662Z,101708.59
2022-10-12T10:13:53.488Z,101703.59
2022-10-12T10:16:22.054Z,101704.94
2022-10-12T10:18:54.550Z,101709.09
2022-10-12T10:21:36.375Z,101709.75
2022-10-12T10:24:05.371Z,101703.28
2022-10-12T10:26:54.148Z,101703.63
2022-10-12T10:29:33.191Z,101706.09
2022-10-12T10:32:24.250Z,101705.91
2022-10-12T10:35:22.006Z,101702.13
2022-10-12T10:38:17.905Z,101694.97
2022-10-12T10:40:52.139Z,101695.63
2022-10-12T10:43:30.693Z,101699.94
2022-10-12T10:46:03.589Z,101700.94
2022-10-12T10:48:40.885Z,101691.81
2022-10-12T10:51:07.921Z,101689.16
2022-10-12T10:53:47.857Z,101683.84
2022-10-12T10:56:22.049Z,101677.56
2022-10-12T10:59:00.323Z,101665.91
2022-10-12T11:01:34.223Z,101652.47
2022-10-12T11:04:07.550Z,101651.31
2022-10-12T11:06:43.004Z,101639.50
2022-10-12T11:09:20.237Z,101636.34
2022-10-12T11:11:56.323Z,101635.00
2022-10-12T11:14:31.243Z,101637.97
2022-10-12T11:17:05.957Z,101632.34
2022-10-12T11:19:43.764Z,101614.69
2022-10-12T11:22:30.468Z,101602.06
2022-10-12T11:25:07.176Z,101605.69
2022-10-12T11:27:37.978Z,101592.72
2022-10-12T11:30:13.800Z,101604.00
2022-10-12T11:32:48.418Z,101606.47
2022-10-12T11:35:19.202Z,101607.97
2022-10-12T11:37:55.564Z,101606.78
2022-10-12T11:41:00.329Z,101603.44
2022-10-12T11:43:40.726Z,101604.41
2022-10-12T11:46:13.388Z,101610.66
2022-10-12T11:48:48.098Z,101605.81
2022-10-12T11:51:14.910Z,101610.94
2022-10-12T11:54:29.248Z,101614.28
2022-10-12T11:57:02.060Z,101613.56
2022-10-12T11:59:40.612Z,101611.06
2022-10-12T12:02:29.747Z,101599.38
2022-10-12T12:04:57.127Z,101600.88
2022-10-12T12:07:54.299Z,101619.31
2022-10-12T12:10:27.909Z,101614.19
2022-10-12T12:13:18.112Z,101602.53
2022-10-12T12:15:47.878Z,101606.19
2022-10-12T12:18:26.503Z,101593.88
2022-10-12T12:21:07.633Z,101579.75
2022-10-12T12:23:42.036Z,101576.25
2022-10-12T12:26:18.161Z,101586.28
2022-10-12T12:29:10.390Z,101575.97
2022-10-12T12:31:37.830Z,101559.00
2022-10-12T12:34:06.879Z,101559.00
2022-10-12T12:36:39.380Z,101556.72
2022-10-12T12:39:33.139Z,101550.56
2022-10-12T12:42:02.526Z,101546.09
2022-10-12T12:44:40.644Z,101543.06
2022-10-12T12:47:32.662Z,101539.22
2022-10-12T12:50:33.557Z,101536.19
2022-10-12T12:53:36.785Z,101531.34
2022-10-12T12:56:17.158Z,101527.31
2022-10-12T12:59:13.313Z,101524.47
2022-10-12T13:02:15.582Z,101519.63
2022-10-12T13:04:53.499Z,101525.22
2022-10-12T13:08:04.226Z,101522.03
2022-10-12T13:10:40.896Z,101514.16
2022-10-12T13:13:19.799Z,101503.16
2022-10-12T13:16:57.219Z,101508.13
2022-10-12T13:19:22.461Z,101510.25
2022-10-12T13:21:52.683Z,101502.09
2022-10-12T13:24:44.529Z,101510.06
2022-10-12T13:27:27.697Z,101510.06
2022-10-12T13:29:59.795Z,101510.25
2022-10-12T13:32:42.619Z,101506.75
2022-10-12T13:35:35.841Z,101509.41
2022-10-12T13:38:05.506Z,101505.94
2022-10-12T13:40:41.114Z,101496.66
2022-10-12T13:43:29.145Z,101485.53
2022-10-12T13:45:56.449Z,101479.19
2022-10-12T13:48:40.240Z,101475.72
2022-10-12T13:51:24.086Z,101468.56
2022-10-12T13:53:51.085Z,101475.38
2022-10-12T13:56:21.394Z,101477.03
2022-10-12T13:58:48.458Z,101473.97
2022-10-12T14:01:15.244Z,101471.31
2022-10-12T14:03:44.156Z,101473.81
2022-10-12T14:06:34.536Z,101470.97
2022-10-12T14:09:27.338Z,101468.94
2022-10-12T14:11:56.504Z,101469.41
2022-10-12T14:14:35.351Z,101472.72
2022-10-12T14:17:02.616Z,101474.19
2022-10-12T14:19:42.981Z,101471.31
2022-10-12T14:22:10.112Z,101469.50
2022-10-12T14:24:37.399Z,101465.38
2022-10-12T14:27:06.985Z,101466.38
2022-10-12T14:29:36.027Z,101464.53
2022-10-12T14:32:23.385Z,101465.19
2022-10-12T14:35:04.130Z,101463.34
2022-10-12T14:37:31.404Z,101464.38
2022-10-12T14:40:02.609Z,101465.19
2022-10-12T14:42:34.781Z,101464.38
2022-10-12T14:45:04.125Z,101459.03
2022-10-12T14:47:38.750Z,101453.50
2022-10-12T14:50:09.001Z,101448.19
2022-10-12T14:52:49.574Z,101449.22
2022-10-12T14:55:19.212Z,101447.56
2022-10-12T14:57:47.460Z,101455.06
2022-10-12T15:00:23.947Z,101454.78
2022-10-12T15:02:51.198Z,101442.03
2022-10-12T15:05:21.594Z,101441.09
2022-10-12T15:07:49.410Z,101440.84
2022-10-12T15:10:18.803Z,101441.00
2022-10-12T15:12:46.217Z,101434.03
2022-10-12T15:15:38.514Z,101426.88
2022-10-12T15:18:05.685Z,101430.75
2022-10-12T15:20:33.086Z,101423.75
2022-10-12T15:23:03.031Z,101420.28
2022-10-12T15:25:35.840Z,101428.09
2022-10-12T15:28:03.250Z,101428.09
2022-10-12T15:30:33.505Z,101421.94
2022-10-12T15:33:00.359Z,101414.78
2022-10-12T15:35:29.443Z,101417.44
2022-10-12T15:37:59.157Z,101415.59
2022-10-12T15:40:29.241Z,101413.75
2022-10-12T15:42:56.054Z,101407.41
2022-10-12T15:45:37.105Z,101397.78
2022-10-12T15:48:06.173Z,101395.13
2022-10-12T15:50:47.716Z,101402.31
2022-10-12T15:53:26.461Z,101395.50
2022-10-12T15:55:54.909Z,101395.50
2022-10-12T15:58:22.295Z,101385.03
2022-10-12T16:00:49.368Z,101382.56
2022-10-12T16:03:25.735Z,101389.72
2022-10-12T16:05:54.003Z,101388.25
2022-10-12T16:08:20.978Z,101384.97
2022-10-12T16:10:48.808Z,101370.81
2022-10-12T16:13:16.388Z,101373.84
2022-10-12T16:15:43.840Z,101372.38
2022-10-12T16:18:11.474Z,101376.03
2022-10-12T16:20:41.315Z,101378.69
2022-10-12T16:23:22.057Z,101376.03
2022-10-12T16:25:48.802Z,101369.91
2022-10-12T16:28:15.705Z,101367.41
2022-10-12T16:30:42.582Z,101366.78
2022-10-12T16:33:09.452Z,101370.00
2022-10-12T16:35:38.696Z,101364.84
2022-10-12T16:38:05.537Z,101364.19
2022-10-12T16:40:32.619Z,101366.41
2022-10-12T16:42:59.336Z,101365.56
2022-10-12T16:45:26.225Z,101361.47
2022-10-12T16:47:54.225Z,101359.13
2022-10-12T16:50:22.668Z,101353.81
2022-10-12T16:52:49.566Z,101358.31
2022-10-12T16:55:17.318Z,101355.66
2022-10-12T16:57:46.523Z,101359.13
2022-10-12T17:00:16.916Z,101353.00
2022-10-12T17:02:43.778Z,101353.00
2022-10-12T17:05:10.645Z,101357.31
2022-10-12T17:07:37.390Z,101359.13
2022-10-12T17:10:04.961Z,101366.78
2022-10-12T17:12:31.736Z,101364.94
2022-10-12T17:14:58.533Z,101364.94
2022-10-12T17:17:25.441Z,101361.47
2022-10-12T17:19:52.211Z,101372.94
2022-10-12T17:22:19.203Z,101372.94
2022-10-12T17:24:46.157Z,101381.72
2022-10-12T17:27:14.722Z,101378.25
2022-10-12T17:29:42.813Z,101386.22
2022-10-12T17:32:11.015Z,101373.94
2022-10-12T17:34:43.548Z,101376.59
2022-10-12T17:37:13.699Z,101379.25
2022-10-12T17:39:44.098Z,101375.75
2022-10-12T17:42:11.316Z,101371.44
2022-10-12T17:44:38.359Z,101370.59
2022-10-12T17:47:05.284Z,101364.66
2022-10-12T17:49:32.271Z,101365.66
2022-10-12T17:51:59.128Z,101359.69
2022-10-12T17:54:26.884Z,101354.56
2022-10-12T17:56:57.314Z,101351.09
2022-10-12T17:59:24.552Z,101350.44
2022-10-12T18:01:52.531Z,101359.63
2022-10-12T18:04:19.917Z,101360.78
2022-10-12T18:06:46.695Z,101363.81
2022-10-12T18:09:14.910Z,101364.00
2022-10-12T18:11:42.031Z,101370.47
2022-10-12T18:14:10.138Z,101387.47
2022-10-12T18:16:37.494Z,101385.81
2022-10-12T18:19:11.507Z,101383.13
2022-10-12T18:21:39.020Z,101384.97
2022-10-12T18:24:16.083Z,101381.47
2022-10-12T18:26:46.201Z,101388.63
2022-10-12T18:29:16.424Z,101387.16
2022-10-12T18:31:43.228Z,101389.00
2022-10-12T18:34:10.062Z,101388.16
2022-10-12T18:36:36.977Z,101399.97
2022-10-12T18:39:14.802Z,101392.81
2022-10-12T18:41:41.737Z,101384.41
2022-10-12T18:44:10.958Z,101383.56
2022-10-12T18:46:39.169Z,101404.00
2022-10-12T18:49:16.736Z,101393.38
2022-10-12T18:51:51.394Z,101390.88
2022-10-12T18:54:18.241Z,101393.53
2022-10-12T18:56:45.468Z,101398.84
2022-10-12T18:59:18.653Z,101389.06
2022-10-12T19:01:45.697Z,101390.88
2022-10-12T19:04:15.647Z,101384.72
2022-10-12T19:06:42.930Z,101383.94
2022-10-12T19:09:14.232Z,101387.59
2022-10-12T19:11:41.295Z,101383.28
2022-10-12T19:14:13.842Z,101371.81
2022-10-12T19:16:41.057Z,101369.31
2022-10-12T19:19:21.181Z,101378.34
2022-10-12T19:21:50.266Z,101381.00
2022-10-12T19:24:17.928Z,101389.75
2022-10-12T19:26:45.391Z,101371.34
2022-10-12T19:29:14.643Z,101370.69
2022-10-12T19:31:44.957Z,101363.56
2022-10-12T19:34:14.045Z,101368.41
2022-10-12T19:36:42.507Z,101365.75
2022-10-12T19:39:15.757Z,101358.91
2022-10-12T19:41:42.715Z,101355.25
2022-10-12T19:44:11.687Z,101357.09
2022-10-12T19:46:40.002Z,101371.19
2022-10-12T19:49:14.780Z,101371.19
2022-10-12T19:51:41.992Z,101362.78
2022-10-12T19:54:12.025Z,101380.72
2022-10-12T19:56:39.234Z,101375.41
2022-10-12T19:59:11.008Z,101379.88
2022-10-12T20:01:39.691Z,101380.88
2022-10-12T20:04:09.889Z,101382.75
2022-10-12T20:06:37.624Z,101383.72
2022-10-12T20:09:16.191Z,101377.59
2022-10-12T20:11:42.956Z,101382.06
2022-10-12T20:14:10.604Z,101380.41
2022-10-12T20:16:37.842Z,101371.00
2022-10-12T20:19:09.936Z,101369.97
2022-10-12T20:21:36.850Z,101370.31
2022-10-12T20:24:04.080Z,101361.69
2022-10-12T20:26:30.980Z,101361.06
2022-10-12T20:29:04.789Z,101365.72
2022-10-12T20:31:31.572Z,101358.13
2022-10-12T20:33:58.490Z,101369.75
2022-10-12T20:36:30.778Z,101367.25
2022-10-12T20:38:59.308Z,101365.63
2022-10-12T20:41:27.819Z,101365.31
2022-10-12T20:43:58.876Z,101369.97
2022-10-12T20:46:26.894Z,101369.13
2022-10-12T20:49:08.486Z,101373.78
2022-10-12T20:51:36.574Z,101374.00
2022-10-12T20:54:05.860Z,101378.63
2022-10-12T20:56:35.477Z,101379.63
2022-10-12T20:59:14.906Z,101383.31
2022-10-12T21:01:42.232Z,101371.19
2022-10-12T21:04:10.392Z,101381.97
2022-10-12T21:06:38.462Z,101376.22
2022-10-12T21:09:07.381Z,101376.38
2022-10-12T21:11:34.671Z,101378.88
2022-10-12T21:14:01.614Z,101374.53
2022-10-12T21:16:28.697Z,101368.25
2022-10-12T21:18:56.161Z,101374.22
2022-10-12T21:21:23.013Z,101363.59
2022-10-12T21:24:00.557Z,101373.03
2022-10-12T21:26:29.633Z,101370.53
2022-10-12T21:28:56.523Z,101366.88
2022-10-12T21:31:26.029Z,101367.72
2022-10-12T21:33:55.043Z,101376.50
2022-10-12T21:36:29.170Z,101372.84
2022-10-12T21:38:56.188Z,101368.38
2022-10-12T21:41:25.709Z,101375.69
2022-10-12T21:43:53.174Z,101371.38
2022-10-12T21:46:26.261Z,101369.38
2022-10-12T21:48:55.759Z,101373.69
2022-10-12T21:51:25.062Z,101370.84
2022-10-12T21:53:52.292Z,101371.84
2022-10-12T21:56:27.780Z,101372.69
2022-10-12T21:59:07.312Z,101364.53
2022-10-12T22:01:40.897Z,101373.00
2022-10-12T22:04:13.144Z,101360.50
2022-10-12T22:06:42.501Z,101354.41
2022-10-12T22:09:15.463Z,101362.38
2022-10-12T22:11:43.346Z,101349.09
2022-10-12T22:14:14.867Z,101352.53
2022-10-12T22:16:43.530Z,101346.25
2022-10-12T22:19:19.296Z,101337.44
2022-10-12T22:21:48.904Z,101337.28
2022-10-12T22:24:16.128Z,101343.59
2022-10-12T22:26:44.039Z,101337.44
2022-10-12T22:29:11.976Z,101340.09
2022-10-12T22:31:40.969Z,101347.22
2022-10-12T22:34:08.439Z,101341.13
2022-10-12T22:36:35.165Z,101339.25
2022-10-12T22:39:10.678Z,101346.25
2022-10-12T22:41:37.488Z,101344.56
2022-10-12T22:44:04.406Z,101348.06
2022-10-12T22:46:31.554Z,101353.38
2022-10-12T22:48:58.395Z,101349.88
2022-10-12T22:51:31.615Z,101345.41
2022-10-12T22:53:59.205Z,101349.72
2022-10-12T22:56:26.343Z,101340.09
2022-10-12T22:59:07.432Z,101339.47
2022-10-12T23:01:35.253Z,101355.41
2022-10-12T23:04:01.999Z,101341.91
2022-10-12T23:06:28.857Z,101339.25
2022-10-12T23:08:55.747Z,101348.25
2022-10-12T23:11:25.158Z,101348.44
2022-10-12T23:13:53.149Z,101338.81
2022-10-12T23:16:23.197Z,101344.47
2022-10-12T23:18:59.515Z,101341.00
2022-10-12T23:21:27.963Z,101337.69
2022-10-12T23:23:54.844Z,101351.78
2022-10-12T23:26:24.305Z,101342.81
2022-10-12T23:28:51.956Z,101332.38
2022-10-12T23:31:21.998Z,101326.22
2022-10-12T23:33:49.346Z,101335.22
2022-10-12T23:36:17.517Z,101339.69
2022-10-12T23:38:45.551Z,101333.72
2022-10-12T23:41:13.115Z,101335.56
2022-10-12T23:43:40.622Z,101346.34
2022-10-12T23:46:08.462Z,101341.22
2022-10-12T23:48:35.672Z,101348.53
2022-10-12T23:51:02.903Z,101341.56
2022-10-12T23:53:29.689Z,101340.72
2022-10-12T23:55:56.810Z,101344.22
2022-10-12T23:58:23.741Z,101331.78
